• Join FlightAware (Why Join?)
  • Login
  • US Flag 
07:07AM EST


 

Airport Tracker/Info


-or-


 

Live Flight TrackerFlight Track Log ✈ EJA922 ✈ 10-Jan-2014 ✈ KSUA - KAPF

Flight Track Log - Related Links

Times and Time Zones

All times are in EST time to prevent confusion due to time zone crossing. See the EJA922 flight status page for this flight to view local times or setup timezone preferences in your user account.

Time Position Orientation Groundspeed Altitude Reporting Facility
EST Latitude Longitude Course Direction KTS MPH feet Rate Location/Type
04:24PM 27.2228 -80.1781 318° Northwest 266 306 3,000  Level Miami Center
04:25PM 27.2356 -80.2581 280° West 274 315 3,600 960 Climbing Miami Center
04:26PM 27.2483 -80.3353 281° West 280 322 5,000 1,200 Climbing Miami Center
04:27PM 27.2547 -80.4128 275° West 269 310 6,000 1,800 Climbing Miami Center
04:28PM 27.2522 -80.5083 268° West 269 310 8,700 2,040 Climbing Miami Center
04:29PM 27.2433 -80.6133 265° West 315 362 10,100 660 Climbing Miami Center
04:30PM 27.1925 -80.7189 242° Southwest 353 406 10,100  Level Miami Center
04:31PM 27.1419 -80.8153 240° Southwest 388 447 10,100  Level Miami Center
04:32PM 27.0847 -80.9206 239° Southwest 393 452 10,100 -60 Level Miami Center
04:33PM 27.0231 -81.0350 239° Southwest 398 458 10,000 120 Descending Miami Center
04:34PM 26.9636 -81.1425 238° Southwest 404 465 10,400 480 Climbing Miami Center
04:35PM 26.9061 -81.2475 238° Southwest 399 459 11,000 660 Climbing Miami Center
04:36PM 26.8594 -81.3433 241° Southwest 375 432 11,800 60 Climbing Miami Center
04:37PM 26.8025 -81.4225 231° Southwest 346 398 11,200 -780 Descending Miami Center
04:38PM 26.7136 -81.4611 201° Southwest 328 377 10,300 -1,200 Descending Miami Center
04:39PM 26.6319 -81.4694 185° South 307 353 8,800 -1,200 Descending Miami Center
04:40PM 26.5569 -81.4642 176° South 295 339 8,000 -1,140 Descending Miami Center
04:41PM 26.4944 -81.4594 176° South 256 295 6,600 -1,500 Descending Miami Center
04:42PM 26.4358 -81.4686 188° South 227 261 5,000 -840 Descending Miami Center
04:43PM 26.4025 -81.5278 238° Southwest 200 230 5,000  Level Miami Center
04:44PM 26.3733 -81.5892 242° Southwest 222 255 5,000  Level Miami Center
04:46PM 26.2640 -81.6816 236° Southwest  Level Estimated
04:53PM 26.1500 -81.7667 246° West  Level FlightAware Approximate
04:54PM 26.1524 -81.7756 246° West  Level Estimated
04:55PM 26.1524 -81.7756 246° West  Level Estimated
04:56PM 26.1524 -81.7756 246° West  Level Estimated
04:57PM 26.1524 -81.7756 246° West  Level Estimated
04:58PM 26.1524 -81.7756 246° West  Level Estimated
04:59PM 26.1524 -81.7756 246° West  Level Estimated